Wolf Creek Pass, CO

3:15 PM MDT on May 28, 2017 (GMT -0600)
Wolf Creek Pass

Weather History for KCPW - May, 2013

Change the Weather History Date:

Thursday, May 23, 2013

  Actual Average (KALS) Record (KALS)
Temperature  
Mean Temperature 42 °F -  
Max Temperature 51 °F 71 °F 87 °F (2005)
Min Temperature 33 °F 35 °F 23 °F (1972)
Degree Days  
Heating Degree Days 23    
Moisture  
Dew Point 16 °F    
Average Humidity 36    
Maximum Humidity 48    
Minimum Humidity 19    
Precipitation  
Precipitation 0.00 in - - ()
Sea Level Pressure  
Sea Level Pressure 30.33 in    
Wind  
Wind Speed 15 mph (SSW)    
Max Wind Speed 39 mph    
Max Gust Speed 53 mph    
Visibility 10 miles    
Events      
Averages and records for this station are not official NWS values.
T = Trace of Precipitation, MM = Missing Value Source: NWS Daily Summary

Daily Weather History Graph

Daily Weather History Graph

Search for Another Location

Airport or City:

Trip Planner

Search our weather history database for the weather conditions in past years. The results will help you decide how hot, cold, wet, or windy it might be!

Date:

Astronomy

May. 23, 2013 Rise Set
Actual Time 5:52 AM MDT 8:16 PM MDT
Civil Twilight 5:22 AM MDT 8:46 PM MDT
Nautical Twilight 4:45 AM MDT 9:23 PM MDT
Astronomical Twilight 4:04 AM MDT 10:04 PM MDT
Moon 6:53 PM MDT (5/23) 4:37 AM MDT (5/23)
Length of Visible Light 15h 24m
Length of Day
14h 24m
Waxing Gibbous, 97% of the Moon is Illuminated
May 23
Waxing Gibbous
May 24
Full
May 31
Last Quarter
Jun 8
New
Jun 16
First Quarter

Hourly Weather History & Observations

Time (MDT) Temp. Windchill Dew Point Humidity Pressure Visibility Wind Dir Wind Speed Gust Speed Precip Events Conditions
12:02 AM 37.4 °F 32.1 °F 17.6 °F 45% 30.33 in 10.0 mi SSW 6.9 mph - N/A   Clear
12:22 AM 37.4 °F 31.4 °F 17.6 °F 45% 30.32 in 10.0 mi SSW 8.1 mph - N/A   Clear
12:42 AM 37.4 °F 31.4 °F 17.6 °F 45% 30.32 in 10.0 mi SSW 8.1 mph - N/A   Clear
1:02 AM 37.4 °F 32.8 °F 17.6 °F 45% 30.31 in 10.0 mi SSW 5.8 mph - N/A   Clear
1:22 AM 39.2 °F 32.5 °F 17.6 °F 42% 30.31 in 10.0 mi SW 10.4 mph - N/A   Clear
1:42 AM 39.2 °F 32.5 °F 17.6 °F 42% 30.31 in 10.0 mi SSW 10.4 mph 18.4 mph N/A   Clear
2:02 AM 39.2 °F 30.8 °F 17.6 °F 42% 30.31 in 10.0 mi SW 15.0 mph 24.2 mph N/A   Clear
2:22 AM 37.4 °F 30.3 °F 17.6 °F 45% 30.31 in 10.0 mi SW 10.4 mph 21.9 mph N/A   Clear
2:42 AM 37.4 °F 28.9 °F 17.6 °F 45% 30.31 in 10.0 mi SW 13.8 mph 21.9 mph N/A   Clear
3:02 AM 37.4 °F 28.9 °F 17.6 °F 45% 30.31 in 10.0 mi SW 13.8 mph 24.2 mph N/A   Clear
3:22 AM 35.6 °F 25.5 °F 17.6 °F 48% 30.31 in 10.0 mi SW 17.3 mph - N/A   Clear
3:42 AM 35.6 °F 25.5 °F 17.6 °F 48% 30.32 in 10.0 mi SW 17.3 mph 26.5 mph N/A   Clear
4:02 AM 35.6 °F 26.2 °F 15.8 °F 44% 30.31 in 10.0 mi SW 15.0 mph 21.9 mph N/A   Clear
4:22 AM 35.6 °F 25.5 °F 15.8 °F 44% 30.32 in 10.0 mi SW 17.3 mph 25.3 mph N/A   Clear
4:42 AM 35.6 °F 26.2 °F 15.8 °F 44% 30.32 in 10.0 mi SW 15.0 mph 23.0 mph N/A   Clear
5:02 AM 33.8 °F 23.5 °F 15.8 °F 48% 30.32 in 10.0 mi SW 16.1 mph 21.9 mph N/A   Clear
5:22 AM 33.8 °F 24.3 °F 14.0 °F 44% 30.32 in 10.0 mi SW 13.8 mph 24.2 mph N/A   Clear
5:42 AM 35.6 °F 26.2 °F 14.0 °F 41% 30.31 in 10.0 mi SW 15.0 mph 24.2 mph N/A   Clear
6:02 AM 33.8 °F 23.5 °F 14.0 °F 44% 30.31 in 10.0 mi SW 16.1 mph 24.2 mph N/A   Clear
6:22 AM 33.8 °F 23.5 °F 14.0 °F 44% 30.31 in 10.0 mi SW 16.1 mph 25.3 mph N/A   Clear
6:42 AM 35.6 °F 26.6 °F 14.0 °F 41% 30.32 in 10.0 mi SW 13.8 mph 25.3 mph N/A   Clear
7:02 AM 35.6 °F 25.9 °F 14.0 °F 41% 30.32 in 10.0 mi SW 16.1 mph 21.9 mph N/A   Clear
7:22 AM 35.6 °F 26.2 °F 14.0 °F 41% 30.32 in 10.0 mi SW 15.0 mph 21.9 mph N/A   Clear
7:42 AM 37.4 °F 28.5 °F 15.8 °F 41% 30.33 in 10.0 mi SW 15.0 mph 24.2 mph N/A   Clear
8:02 AM 39.2 °F 29.8 °F 15.8 °F 39% 30.33 in 10.0 mi SW 18.4 mph 26.5 mph N/A   Clear
8:22 AM 39.2 °F 31.6 °F 17.6 °F 42% 30.34 in 10.0 mi SSW 12.7 mph 26.5 mph N/A   Clear
8:42 AM 41.0 °F 33.9 °F 17.6 °F 39% 30.35 in 10.0 mi SSW 12.7 mph 21.9 mph N/A   Clear
9:02 AM 41.0 °F 32.5 °F 17.6 °F 39% 30.36 in 10.0 mi SSW 17.3 mph 23.0 mph N/A   Clear
9:22 AM 41.0 °F 33.5 °F 19.4 °F 42% 30.36 in 10.0 mi SW 13.8 mph 24.2 mph N/A   Clear
9:42 AM 41.0 °F 32.8 °F 19.4 °F 42% 30.36 in 10.0 mi SSW 16.1 mph 29.9 mph N/A   Clear
10:02 AM 42.8 °F 35.8 °F 19.4 °F 39% 30.37 in 10.0 mi SSW 13.8 mph 31.1 mph N/A   Clear
10:22 AM 42.8 °F 35.4 °F 19.4 °F 39% 30.36 in 10.0 mi South 15.0 mph 33.4 mph N/A   Clear
10:42 AM 42.8 °F 34.3 °F 19.4 °F 39% 30.36 in 10.0 mi South 19.6 mph 36.8 mph N/A   Clear
11:02 AM 42.8 °F 36.2 °F 19.4 °F 39% 30.37 in 10.0 mi SSW 12.7 mph 28.8 mph N/A   Clear
11:22 AM 42.8 °F 33.8 °F 19.4 °F 39% 30.37 in 10.0 mi SSW 21.9 mph 33.4 mph N/A   Scattered Clouds
11:42 AM 42.8 °F 35.1 °F 19.4 °F 39% 30.37 in 10.0 mi South 16.1 mph 33.4 mph N/A   Scattered Clouds
12:02 PM 44.6 °F 35.9 °F 19.4 °F 37% 30.37 in 10.0 mi SSW 23.0 mph 35.7 mph N/A   Scattered Clouds
12:22 PM 44.6 °F 37.4 °F 19.4 °F 37% 30.38 in 10.0 mi SSW 16.1 mph 35.7 mph N/A   Scattered Clouds
12:42 PM 44.6 °F 38.1 °F 17.6 °F 34% 30.37 in 10.0 mi South 13.8 mph 48.3 mph N/A   Scattered Clouds
1:02 PM 44.6 °F 38.1 °F 19.4 °F 37% 30.37 in 10.0 mi SSW 13.8 mph 40.3 mph N/A   Scattered Clouds
1:22 PM 46.4 °F 39.8 °F 19.4 °F 34% 30.37 in 10.0 mi South 16.1 mph 40.3 mph N/A   Scattered Clouds
1:42 PM 46.4 °F 38.1 °F 17.6 °F 32% 30.36 in 10.0 mi SSW 24.2 mph 35.7 mph N/A   Scattered Clouds
2:02 PM 46.4 °F 37.5 °F 17.6 °F 32% 30.35 in 10.0 mi SSW 27.6 mph 50.6 mph N/A   Clear
2:22 PM 46.4 °F 38.7 °F 17.6 °F 32% 30.36 in 10.0 mi SSW 20.7 mph 44.9 mph N/A   Clear
2:42 PM 48.2 °F - 17.6 °F 30% 30.35 in 10.0 mi SSW 25.3 mph 47.2 mph N/A   Clear
3:02 PM 50.0 °F - 17.6 °F 28% 30.35 in 10.0 mi SSW 25.3 mph 38.0 mph N/A   Clear
3:22 PM 50.0 °F - 17.6 °F 28% 30.35 in 10.0 mi SSW 24.2 mph 43.7 mph N/A   Clear
3:42 PM 50.0 °F - 17.6 °F 28% 30.34 in 10.0 mi SW 28.8 mph 47.2 mph N/A   Clear
4:02 PM 50.0 °F - 17.6 °F 28% 30.33 in 10.0 mi SW 28.8 mph 46.0 mph N/A   Scattered Clouds
4:22 PM 48.2 °F - 17.6 °F 30% 30.33 in 10.0 mi SSW 19.6 mph 36.8 mph N/A   Overcast
4:42 PM 50.0 °F - 17.6 °F 28% 30.32 in 10.0 mi SSW 18.4 mph 43.7 mph N/A   Mostly Cloudy
5:02 PM 50.0 °F - 15.8 °F 26% 30.32 in 10.0 mi SSW 29.9 mph 44.9 mph N/A   Scattered Clouds
5:22 PM 48.2 °F - 14.0 °F 25% 30.33 in 10.0 mi South 18.4 mph 41.4 mph N/A   Mostly Cloudy
5:42 PM 48.2 °F - 17.6 °F 30% 30.34 in 10.0 mi SW 17.3 mph 34.5 mph N/A   Mostly Cloudy
5:59 PM 50.0 °F - 15.8 °F 26% 30.33 in 10.0 mi SSW 12.7 mph 32.2 mph N/A   Scattered Clouds
6:18 PM 51.8 °F - 14.0 °F 22% 30.32 in 10.0 mi SW 24.2 mph 33.4 mph N/A   Scattered Clouds
6:39 PM 51.8 °F - 12.2 °F 21% 30.31 in 10.0 mi SW 35.7 mph 44.9 mph N/A   Mostly Cloudy
6:59 PM 51.8 °F - 10.4 °F 19% 30.31 in 10.0 mi SW 39.1 mph 52.9 mph N/A   Mostly Cloudy
7:19 PM 50.0 °F - 10.4 °F 20% 30.31 in 10.0 mi SW 27.6 mph 43.7 mph N/A   Scattered Clouds
7:39 PM 50.0 °F - 10.4 °F 20% 30.31 in 10.0 mi SW 29.9 mph 46.0 mph N/A   Scattered Clouds
7:59 PM 48.2 °F - 10.4 °F 22% 30.33 in 10.0 mi SW 23.0 mph 44.9 mph N/A   Scattered Clouds
8:19 PM 46.4 °F 37.5 °F 8.6 °F 22% 30.33 in 10.0 mi SW 27.6 mph 42.6 mph N/A   Scattered Clouds